Time;durP1;ratioP1;P1;durP2;ratioP2;P2;SDS_P1;SDS_P2;PMS_P1;PMS_P2;Temp;Humidity;BMP_temperature;BMP_pressure;BME280_temperature;BME280_humidity;BME280_pressure;Samples;Min_cycle;Max_cycle;Signal;HPM_P1;HPM_P2
2023/10/09 00:03:04;;;;;;;14.93;2.97;;;;;;;19.16;62.67;95657.44;5034122;28;20229;-69
2023/10/09 00:05:46;;;;;;;14.53;2.70;;;;;;;19.04;62.79;95658.50;5005476;28;20226;-71
2023/10/09 00:08:30;;;;;;;13.03;2.70;;;;;;;18.96;62.92;95658.88;5006783;28;20257;-76
2023/10/09 00:11:13;;;;;;;9.63;2.57;;;;;;;18.94;63.32;95668.91;5035524;28;20240;-75
2023/10/09 00:13:48;;;;;;;8.43;2.70;;;;;;;18.96;63.21;95661.53;5018139;28;20714;-74
2023/10/09 00:16:14;;;;;;;11.67;2.50;;;;;;;18.98;63.00;95662.09;5014132;28;20233;-76
2023/10/09 00:18:46;;;;;;;8.23;2.80;;;;;;;18.92;63.20;95670.97;5001674;28;20329;-74
2023/10/09 00:21:20;;;;;;;14.30;2.60;;;;;;;18.95;62.92;95665.19;5028220;28;20222;-73
2023/10/09 00:23:52;;;;;;;15.13;2.40;;;;;;;18.77;63.62;95664.28;5021877;28;20234;-74
2023/10/09 00:26:19;;;;;;;9.40;2.60;;;;;;;18.77;63.77;95669.59;5031730;28;20226;-75
2023/10/09 00:28:47;;;;;;;10.33;2.60;;;;;;;18.76;63.52;95660.03;5020785;28;20864;-75
2023/10/09 00:31:15;;;;;;;7.27;2.40;;;;;;;18.79;63.64;95670.16;5006455;28;20245;-75
2023/10/09 00:33:42;;;;;;;7.63;2.47;;;;;;;18.81;63.43;95654.84;5016512;28;20295;-69
2023/10/09 00:36:12;;;;;;;9.40;2.20;;;;;;;18.58;63.86;95651.41;5020144;28;20308;-69
2023/10/09 00:38:46;;;;;;;14.47;2.60;;;;;;;18.56;64.08;95662.22;5028214;28;20312;-70
2023/10/09 00:41:19;;;;;;;10.17;2.50;;;;;;;18.62;64.01;95658.66;5017575;28;20233;-70
2023/10/09 00:43:44;;;;;;;8.50;2.60;;;;;;;18.54;64.11;95651.06;5033070;28;20228;-71
2023/10/09 00:46:16;;;;;;;9.63;2.30;;;;;;;18.38;64.50;95653.56;5032684;28;20230;-70
2023/10/09 00:48:42;;;;;;;8.73;2.53;;;;;;;18.40;64.60;95659.44;5005625;28;20774;-70
2023/10/09 00:51:16;;;;;;;9.53;2.40;;;;;;;18.43;64.27;95664.28;4998799;28;20221;-71
2023/10/09 00:53:51;;;;;;;6.27;2.27;;;;;;;18.36;64.42;95669.69;5019391;28;20237;-70
2023/10/09 00:56:37;;;;;;;8.57;2.20;;;;;;;18.24;64.80;95668.06;5043732;28;20229;-69
2023/10/09 00:59:13;;;;;;;9.17;2.20;;;;;;;18.24;64.83;95676.81;5022548;28;20322;-69
2023/10/09 01:01:41;;;;;;;9.43;2.10;;;;;;;18.21;64.53;95676.47;5036648;28;20252;-70
2023/10/09 01:04:17;;;;;;;10.00;2.53;;;;;;;18.04;64.39;95673.66;5016126;28;20236;-70
2023/10/09 01:06:44;;;;;;;9.47;2.30;;;;;;;17.96;64.69;95680.09;5018109;28;20241;-70
2023/10/09 01:09:12;;;;;;;6.47;2.20;;;;;;;17.98;64.37;95703.72;5019329;28;20221;-68
2023/10/09 01:14:22;;;;;;;10.00;2.40;;;;;;;17.96;63.99;95708.44;5036425;28;20650;-70
2023/10/09 01:16:48;;;;;;;5.23;1.80;;;;;;;17.81;63.70;95694.78;5036480;28;20225;-70
2023/10/09 01:19:23;;;;;;;8.47;2.10;;;;;;;17.75;63.65;95698.31;5019360;28;20279;-69
2023/10/09 01:21:50;;;;;;;9.87;2.07;;;;;;;17.74;64.20;95699.38;5031988;28;20298;-69
2023/10/09 01:24:16;;;;;;;5.80;2.07;;;;;;;17.78;63.39;95714.59;5036112;28;20966;-70
2023/10/09 01:26:46;;;;;;;7.17;2.10;;;;;;;17.84;63.32;95718.19;5035297;28;20237;-69
2023/10/09 01:29:14;;;;;;;7.53;2.30;;;;;;;17.79;63.32;95733.94;4998899;28;20243;-70
2023/10/09 01:32:00;;;;;;;9.33;2.20;;;;;;;17.71;63.74;95721.81;5034001;28;20237;-71
2023/10/09 01:34:41;;;;;;;8.93;2.30;;;;;;;17.63;63.90;95721.28;5032690;28;20778;-70
2023/10/09 01:37:51;;;;;;;6.27;2.30;;;;;;;17.50;63.94;95728.34;5018017;28;20696;-70
2023/10/09 01:39:59;;;;;;;6.37;2.20;;;;;;;17.36;64.10;95716.28;5021025;28;20230;-70
2023/10/09 01:42:27;;;;;;;10.20;2.30;;;;;;;17.29;64.30;95725.38;5018114;28;20256;-71
2023/10/09 01:44:53;;;;;;;8.37;2.40;;;;;;;17.24;64.60;95736.59;4998621;28;20987;-69
2023/10/09 01:47:19;;;;;;;5.57;2.10;;;;;;;17.33;64.14;95747.69;5030374;28;20225;-70
2023/10/09 01:49:48;;;;;;;5.73;2.20;;;;;;;17.39;64.32;95755.56;5041040;28;20230;-70
2023/10/09 01:52:17;;;;;;;4.83;2.00;;;;;;;17.33;63.79;95759.09;5013274;28;20226;-70
2023/10/09 01:54:49;;;;;;;5.93;2.10;;;;;;;17.25;64.02;95750.63;5006345;28;20229;-70
2023/10/09 01:57:34;;;;;;;8.90;2.20;;;;;;;17.06;64.32;95762.22;5015468;28;20232;-69
2023/10/09 01:59:59;;;;;;;7.87;2.10;;;;;;;17.08;64.07;95766.28;5041620;28;20250;-69
2023/10/09 02:02:33;;;;;;;6.77;2.10;;;;;;;16.97;64.38;95772.28;5030883;28;20273;-70
2023/10/09 02:05:24;;;;;;;10.03;2.07;;;;;;;17.00;64.17;95773.69;5023970;28;20687;-70
2023/10/09 02:07:52;;;;;;;4.93;2.03;;;;;;;16.87;64.54;95764.03;5023058;28;20316;-70
2023/10/09 02:10:37;;;;;;;4.60;1.87;;;;;;;16.80;64.43;95776.50;5002313;28;20230;-70
2023/10/09 02:13:07;;;;;;;7.47;2.20;;;;;;;16.74;64.73;95769.47;5035018;28;20248;-70
2023/10/09 02:23:41;;;;;;;6.70;2.17;;;;;;;16.76;65.45;95789.38;5033346;28;20364;-69
2023/10/09 02:26:08;;;;;;;7.37;1.90;;;;;;;16.62;65.72;95787.03;5023987;28;20627;-70
2023/10/09 02:28:34;;;;;;;6.77;2.00;;;;;;;16.74;64.89;95796.69;5017966;28;20229;-70
2023/10/09 02:31:13;;;;;;;7.57;2.00;;;;;;;16.52;65.69;95807.84;5030178;28;20699;-70
2023/10/09 02:33:39;;;;;;;5.87;2.03;;;;;;;16.58;65.47;95817.56;5017343;28;20257;-70
2023/10/09 02:36:08;;;;;;;9.53;2.10;;;;;;;16.64;65.49;95825.47;5015206;28;20241;-70
2023/10/09 02:38:35;;;;;;;4.83;1.80;;;;;;;16.63;65.15;95831.75;4999298;28;20640;-70
2023/10/09 02:46:18;;;;;;;6.00;1.87;;;;;;;16.38;65.42;95808.94;5021753;28;20224;-68
2023/10/09 02:48:53;;;;;;;6.17;2.00;;;;;;;16.37;65.82;95817.88;5019080;28;20303;-70
2023/10/09 02:54:18;;;;;;;8.20;2.10;;;;;;;16.40;65.52;95809.53;5039333;28;20871;-69
2023/10/09 02:56:47;;;;;;;5.90;2.10;;;;;;;16.15;66.48;95817.38;5017070;28;20225;-71
2023/10/09 02:59:13;;;;;;;8.60;2.20;;;;;;;16.18;66.35;95820.44;5012806;28;20588;-69
2023/10/09 03:01:40;;;;;;;7.67;2.10;;;;;;;16.19;66.18;95834.47;5014089;28;21003;-70
2023/10/09 03:04:06;;;;;;;4.20;1.80;;;;;;;15.97;66.82;95826.03;5019459;28;20316;-69
2023/10/09 03:06:34;;;;;;;8.53;2.10;;;;;;;16.02;66.95;95828.84;4999072;28;20238;-69
2023/10/09 03:09:16;;;;;;;5.10;2.10;;;;;;;16.12;66.55;95834.47;5003162;28;20226;-70
2023/10/09 03:11:47;;;;;;;5.33;2.10;;;;;;;16.13;66.24;95841.38;5014176;28;20296;-70
2023/10/09 03:14:13;;;;;;;4.27;1.90;;;;;;;16.09;66.22;95844.66;5019522;28;20793;-70
2023/10/09 03:16:39;;;;;;;4.50;1.83;;;;;;;16.09;66.80;95845.47;5030162;28;20263;-69
2023/10/09 03:19:04;;;;;;;8.80;1.97;;;;;;;16.08;66.53;95843.03;5023329;28;20245;-70
2023/10/09 03:21:30;;;;;;;6.73;2.10;;;;;;;16.10;66.32;95848.91;5029908;28;20278;-70
2023/10/09 03:23:56;;;;;;;7.47;1.90;;;;;;;16.16;66.23;95848.91;4999114;28;20230;-69
2023/10/09 03:26:25;;;;;;;4.77;2.00;;;;;;;16.22;66.33;95862.25;5016866;28;20225;-75
2023/10/09 03:28:52;;;;;;;7.30;1.87;;;;;;;15.84;67.24;95864.88;5005970;28;20250;-77
2023/10/09 03:31:18;;;;;;;8.57;2.00;;;;;;;15.81;66.54;95860.81;5018014;28;20245;-75
2023/10/09 03:33:43;;;;;;;5.20;1.80;;;;;;;15.79;66.17;95873.41;5019226;28;20277;-74
2023/10/09 03:36:11;;;;;;;2.40;1.77;;;;;;;15.71;65.91;95872.84;5019937;28;20248;-75
2023/10/09 03:38:38;;;;;;;5.37;1.50;;;;;;;15.45;66.47;95874.50;5014167;28;20265;-75
2023/10/09 03:41:11;;;;;;;2.73;1.70;;;;;;;15.58;66.27;95868.41;5003307;28;20226;-74
2023/10/09 03:43:41;;;;;;;5.50;1.63;;;;;;;15.59;66.71;95877.13;5024781;28;20229;-74
2023/10/09 03:46:15;;;;;;;7.77;1.87;;;;;;;15.74;66.08;95881.13;5016832;28;20869;-74
2023/10/09 03:48:43;;;;;;;5.93;1.70;;;;;;;15.66;66.47;95884.03;5016395;28;20669;-75
2023/10/09 03:51:09;;;;;;;5.13;1.70;;;;;;;15.68;66.83;95879.34;5020805;28;20234;-75
2023/10/09 03:53:39;;;;;;;3.70;1.50;;;;;;;15.63;65.91;95886.25;4997805;28;20234;-73
2023/10/09 03:56:11;;;;;;;5.20;1.70;;;;;;;15.64;66.14;95887.88;5016132;28;20299;-75
2023/10/09 03:58:39;;;;;;;4.67;1.73;;;;;;;15.69;65.62;95888.88;5018634;28;20268;-77
2023/10/09 04:01:37;;;;;;;5.50;1.60;;;;;;;15.53;66.10;95889.31;5004152;28;20229;-76
2023/10/09 04:04:03;;;;;;;3.77;1.70;;;;;;;15.56;65.80;95890.72;5021207;28;20773;-74
2023/10/09 04:06:32;;;;;;;5.43;1.60;;;;;;;15.57;65.76;95887.88;5035057;28;20316;-75
2023/10/09 04:12:12;;;;;;;4.93;1.50;;;;;;;15.53;65.69;95891.94;5013200;28;20245;-74
2023/10/09 04:14:55;;;;;;;8.23;1.70;;;;;;;15.49;65.97;95896.03;5022274;28;20230;-74
2023/10/09 04:22:49;;;;;;;5.60;1.70;;;;;;;15.36;65.15;95888.09;5036629;28;20233;-75
2023/10/09 04:25:25;;;;;;;3.70;1.53;;;;;;;15.39;65.13;95882.41;5011781;28;20222;-75
2023/10/09 04:27:57;;;;;;;4.40;1.40;;;;;;;14.99;65.33;95889.53;5028829;28;20249;-78
2023/10/09 04:30:23;;;;;;;5.30;1.50;;;;;;;15.06;65.69;95892.19;5022411;28;21032;-76
2023/10/09 04:32:49;;;;;;;3.93;1.60;;;;;;;15.07;65.26;95896.44;5022633;28;20234;-76
2023/10/09 04:35:26;;;;;;;4.20;1.50;;;;;;;15.10;64.67;95904.75;5026561;28;20228;-70
2023/10/09 04:38:05;;;;;;;5.50;1.50;;;;;;;15.21;63.48;95898.84;5018028;28;20264;-70
2023/10/09 04:43:20;;;;;;;2.40;1.30;;;;;;;15.15;63.23;95898.88;5021093;28;20316;-70
2023/10/09 04:48:37;;;;;;;2.20;1.60;;;;;;;15.04;63.26;95897.66;5018170;28;20233;-70
2023/10/09 04:52:07;;;;;;;4.60;1.70;;;;;;;15.02;62.98;95902.31;5033760;28;21166;-74
2023/10/09 04:54:13;;;;;;;6.57;1.47;;;;;;;14.86;63.35;95897.44;5033355;28;20364;-76
2023/10/09 04:56:54;;;;;;;6.33;1.60;;;;;;;14.91;63.01;95892.38;5034995;28;20242;-73
2023/10/09 04:59:24;;;;;;;5.27;1.70;;;;;;;14.67;63.08;95898.22;5037401;28;20243;-76
2023/10/09 05:01:57;;;;;;;5.27;1.73;;;;;;;14.87;62.79;95898.25;4988739;28;20264;-75
2023/10/09 05:04:39;;;;;;;5.30;1.50;;;;;;;14.86;62.67;95905.34;5035004;28;20710;-74
2023/10/09 05:07:22;;;;;;;2.80;1.53;;;;;;;14.91;62.28;95912.66;5010545;28;20229;-75
2023/10/09 05:10:14;;;;;;;4.27;1.53;;;;;;;14.92;61.81;95920.38;5031675;28;20226;-73
2023/10/09 05:12:41;;;;;;;3.73;1.60;;;;;;;14.91;61.43;95923.19;5024433;28;20897;-75
2023/10/09 05:15:08;;;;;;;2.50;1.63;;;;;;;14.71;61.25;95923.97;5021121;28;20233;-75
2023/10/09 05:17:35;;;;;;;2.57;1.50;;;;;;;14.75;61.06;95919.94;5005487;28;20242;-75
2023/10/09 05:22:57;;;;;;;7.13;1.87;;;;;;;14.63;61.14;95929.44;5034577;28;20287;-74
2023/10/09 05:31:08;;;;;;;4.50;1.60;;;;;;;14.73;61.15;95945.69;5034224;28;20232;-71
2023/10/09 05:33:37;;;;;;;7.87;1.70;;;;;;;14.79;60.41;95947.53;5016631;28;20241;-70
2023/10/09 05:38:58;;;;;;;2.53;1.70;;;;;;;14.75;59.38;95950.75;5016826;28;20294;-70
2023/10/09 05:47:29;;;;;;;5.53;1.53;;;;;;;14.79;58.99;95968.59;5036115;28;20259;-70
2023/10/09 05:50:33;;;;;;;4.20;1.80;;;;;;;14.99;59.22;95978.38;5017544;28;20248;-69
2023/10/09 06:03:48;;;;;;;4.03;1.67;;;;;;;14.75;58.02;96000.81;5015578;28;20237;-72
2023/10/09 06:06:46;;;;;;;4.20;1.60;;;;;;;14.63;58.33;95995.31;5018162;28;20285;-69
2023/10/09 06:11:41;;;;;;;7.53;1.77;;;;;;;14.71;57.08;96003.03;5013211;28;21053;-71
2023/10/09 06:25:17;;;;;;;3.00;1.67;;;;;;;15.03;55.64;96024.41;5032555;28;20236;-71
2023/10/09 06:32:57;;;;;;;4.17;1.70;;;;;;;15.17;54.27;96028.69;5015333;28;20248;-70
2023/10/09 06:35:33;;;;;;;6.10;1.73;;;;;;;15.21;53.83;96024.66;5021706;28;20237;-69
2023/10/09 06:43:17;;;;;;;10.53;2.20;;;;;;;15.10;52.92;96025.22;5013389;28;20229;-70
2023/10/09 06:45:43;;;;;;;4.37;1.80;;;;;;;14.90;53.35;96030.47;5014966;28;20230;-69
2023/10/09 06:48:40;;;;;;;3.60;1.50;;;;;;;14.95;52.15;96030.69;5015465;28;20393;-69
2023/10/09 06:51:04;;;;;;;2.50;1.50;;;;;;;14.95;53.15;96025.41;5014072;28;20234;-69
2023/10/09 06:59:03;;;;;;;4.67;1.67;;;;;;;15.27;51.72;96026.47;5028991;28;20225;-69
2023/10/09 07:01:46;;;;;;;6.07;1.70;;;;;;;15.38;50.56;96028.53;5021922;28;20324;-76
2023/10/09 07:04:18;;;;;;;5.57;1.50;;;;;;;15.07;51.24;96030.94;5026502;28;20253;-75
2023/10/09 07:06:51;;;;;;;3.57;1.70;;;;;;;15.16;50.82;96030.53;5007717;28;20857;-76
2023/10/09 07:09:20;;;;;;;4.10;1.70;;;;;;;15.20;51.00;96034.41;4999464;28;20233;-74
2023/10/09 07:17:00;;;;;;;10.53;2.30;;;;;;;15.25;49.98;96031.97;5032397;28;20733;-77
2023/10/09 07:22:03;;;;;;;10.57;2.13;;;;;;;15.39;49.71;96038.88;5016532;28;20225;-75
2023/10/09 07:24:43;;;;;;;4.87;1.70;;;;;;;15.43;49.10;96034.00;5023274;28;20315;-76
2023/10/09 07:27:10;;;;;;;5.50;1.80;;;;;;;15.46;48.22;96039.72;5001421;28;20229;-75
2023/10/09 07:29:47;;;;;;;4.73;1.70;;;;;;;15.50;48.75;96040.94;5023942;28;20240;-74
2023/10/09 07:32:22;;;;;;;3.17;1.60;;;;;;;15.43;48.53;96039.28;5025781;28;20229;-74
2023/10/09 07:34:53;;;;;;;4.60;1.90;;;;;;;15.48;48.13;96034.25;5007612;28;20237;-76
2023/10/09 07:37:23;;;;;;;4.33;1.87;;;;;;;15.49;48.17;96034.06;5014295;28;20236;-74
2023/10/09 07:39:58;;;;;;;5.87;1.80;;;;;;;15.47;47.84;96038.72;5035149;28;20228;-75
2023/10/09 07:42:43;;;;;;;4.43;1.70;;;;;;;15.63;46.94;96034.88;5017737;28;20229;-73
2023/10/09 07:46:29;;;;;;;3.43;2.00;;;;;;;15.80;47.04;96036.09;5007138;28;20615;-74
2023/10/09 07:48:02;;;;;;;3.53;1.83;;;;;;;15.83;46.56;96038.31;5013709;28;20226;-73
2023/10/09 07:50:38;;;;;;;4.30;1.67;;;;;;;15.78;46.90;96037.31;5005037;28;20298;-75
2023/10/09 07:53:17;;;;;;;3.97;2.20;;;;;;;15.94;46.21;96035.06;5011314;28;20233;-76
2023/10/09 07:55:53;;;;;;;4.40;1.97;;;;;;;15.96;46.38;96029.56;5023728;28;20247;-77
2023/10/09 07:58:24;;;;;;;4.40;1.70;;;;;;;15.93;46.42;96035.28;4994495;28;20222;-73
2023/10/09 08:01:35;;;;;;;4.43;1.63;;;;;;;16.00;45.82;96036.06;5004849;28;20244;-75
2023/10/09 08:03:46;;;;;;;6.43;1.70;;;;;;;15.95;45.54;96039.28;5022172;28;20291;-75
2023/10/09 08:09:17;;;;;;;7.13;2.07;;;;;;;16.02;43.48;96048.06;5036519;28;20633;-76
2023/10/09 08:19:54;;;;;;;6.60;2.00;;;;;;;16.14;42.42;96038.44;5017503;28;20292;-74
2023/10/09 08:24:59;;;;;;;18.90;2.23;;;;;;;16.48;42.38;96033.94;5031554;28;20229;-74
2023/10/09 08:30:12;;;;;;;15.67;2.13;;;;;;;16.30;41.75;96028.47;5041359;28;20257;-76
2023/10/09 08:32:42;;;;;;;3.33;1.60;;;;;;;16.48;42.01;96015.44;5015601;28;20233;-75
2023/10/09 08:35:51;;;;;;;6.13;1.60;;;;;;;16.42;41.90;96018.88;5010957;28;20225;-77
2023/10/09 08:38:10;;;;;;;3.77;1.60;;;;;;;16.53;42.07;96010.31;5020175;28;20273;-74
2023/10/09 08:40:38;;;;;;;4.63;1.90;;;;;;;16.61;41.97;96013.56;5034972;28;20229;-74
2023/10/09 08:43:16;;;;;;;3.60;1.60;;;;;;;16.49;41.73;96004.63;5012173;28;20317;-75
2023/10/09 08:45:53;;;;;;;2.87;1.63;;;;;;;16.65;42.31;96000.72;5009611;28;20746;-74
2023/10/09 08:48:26;;;;;;;5.73;1.70;;;;;;;16.79;42.13;95986.41;5014056;28;20231;-74
2023/10/09 08:50:54;;;;;;;4.23;1.80;;;;;;;17.02;41.83;95992.00;5012485;28;20229;-72
2023/10/09 08:53:20;;;;;;;5.13;1.60;;;;;;;17.11;41.76;95990.72;5002904;28;20692;-72
2023/10/09 08:55:46;;;;;;;6.50;1.67;;;;;;;16.92;40.70;95988.19;5006260;28;20356;-75
2023/10/09 08:58:26;;;;;;;3.80;1.63;;;;;;;16.87;41.22;95993.28;5020692;28;20229;-76
2023/10/09 09:00:55;;;;;;;5.27;1.60;;;;;;;16.81;40.42;95992.31;5022487;28;20299;-75
2023/10/09 09:03:23;;;;;;;3.07;1.60;;;;;;;16.90;40.23;95988.41;4995804;28;20237;-72
2023/10/09 09:06:01;;;;;;;6.83;1.63;;;;;;;17.01;40.50;95987.72;5031105;28;20276;-74
2023/10/09 09:08:29;;;;;;;5.00;1.70;;;;;;;16.99;39.23;95981.84;5023725;28;20232;-74
2023/10/09 09:13:50;;;;;;;3.03;1.60;;;;;;;17.08;38.52;95995.59;5022642;28;20225;-74
2023/10/09 09:16:20;;;;;;;2.43;1.60;;;;;;;17.28;38.64;95999.75;5017960;28;20236;-72
2023/10/09 09:21:39;;;;;;;4.07;1.70;;;;;;;17.38;36.47;96000.09;5031753;28;20256;-72
2023/10/09 09:24:15;;;;;;;4.73;1.70;;;;;;;17.48;37.20;95989.03;5023405;28;20252;-74
2023/10/09 09:26:58;;;;;;;5.20;1.70;;;;;;;17.49;37.65;95983.50;5009585;28;20291;-74
2023/10/09 09:29:37;;;;;;;6.17;1.63;;;;;;;17.63;37.85;95992.19;5031558;28;20232;-77
2023/10/09 09:32:15;;;;;;;5.63;1.90;;;;;;;17.56;37.15;95986.13;5031765;28;20778;-75
2023/10/09 09:34:54;;;;;;;5.23;1.93;;;;;;;17.57;36.98;95979.00;4999428;28;20233;-76
2023/10/09 09:37:50;;;;;;;8.10;2.10;;;;;;;17.61;36.87;95977.53;5000428;28;20238;-76
2023/10/09 09:40:27;;;;;;;6.70;1.93;;;;;;;17.65;36.57;95968.94;5012436;28;20831;-74
2023/10/09 09:43:04;;;;;;;6.93;1.80;;;;;;;17.86;35.84;95967.75;5011707;28;20234;-76
2023/10/09 09:45:35;;;;;;;5.10;1.63;;;;;;;17.86;35.31;95971.22;5032431;28;20318;-74
2023/10/09 09:48:12;;;;;;;4.03;1.60;;;;;;;17.85;34.75;95976.69;4999767;28;20245;-74
2023/10/09 09:50:43;;;;;;;6.77;1.80;;;;;;;17.97;34.45;95973.13;5017178;28;20245;-73
2023/10/09 09:53:18;;;;;;;3.60;1.70;;;;;;;18.04;35.05;95967.75;5021773;28;20241;-73
2023/10/09 09:55:57;;;;;;;6.10;1.87;;;;;;;17.99;34.96;95963.13;5034483;28;20233;-75
2023/10/09 09:58:23;;;;;;;3.70;1.73;;;;;;;18.23;34.01;95965.91;5007359;28;20238;-74
2023/10/09 10:00:54;;;;;;;4.97;1.67;;;;;;;18.22;33.75;95945.75;5016006;28;20234;-73
2023/10/09 10:03:25;;;;;;;5.50;1.80;;;;;;;18.34;33.69;95952.72;5008300;28;20240;-73
2023/10/09 10:05:51;;;;;;;3.37;1.60;;;;;;;18.36;33.55;95941.91;5032363;28;20414;-75
2023/10/09 10:08:19;;;;;;;3.83;1.50;;;;;;;18.38;33.62;95943.31;5015017;28;20245;-74
2023/10/09 10:11:04;;;;;;;4.73;1.70;;;;;;;18.40;33.45;95941.25;5020178;28;20291;-73
2023/10/09 10:13:42;;;;;;;5.37;1.70;;;;;;;18.54;33.21;95923.34;5019698;28;20264;-75
2023/10/09 10:19:06;;;;;;;3.50;1.70;;;;;;;18.60;32.39;95915.31;5034635;28;20248;-74
2023/10/09 10:24:06;;;;;;;3.17;1.70;;;;;;;18.78;32.00;95909.97;5015014;28;20678;-74
2023/10/09 10:26:33;;;;;;;4.63;1.80;;;;;;;18.73;32.41;95906.34;5015206;28;20321;-74
2023/10/09 10:29:38;;;;;;;3.50;1.50;;;;;;;18.69;32.38;95892.75;5015199;28;20257;-75
2023/10/09 10:32:08;;;;;;;4.83;1.63;;;;;;;18.71;32.32;95880.06;5024704;28;20227;-73
2023/10/09 10:34:55;;;;;;;4.60;1.93;;;;;;;18.91;32.05;95874.47;5002226;28;20234;-76
2023/10/09 10:37:28;;;;;;;6.43;2.40;;;;;;;18.95;32.00;95872.16;5030031;28;20866;-73
2023/10/09 10:39:59;;;;;;;4.07;2.10;;;;;;;19.23;32.78;95861.69;5000473;28;20288;-74
2023/10/09 10:42:33;;;;;;;7.33;2.20;;;;;;;19.25;32.35;95857.78;5011643;28;20241;-75
2023/10/09 10:45:03;;;;;;;3.23;1.80;;;;;;;19.02;31.75;95859.59;5016102;28;20770;-74
2023/10/09 10:47:34;;;;;;;5.43;2.10;;;;;;;19.28;31.63;95851.19;5015759;28;20230;-74
2023/10/09 10:50:35;;;;;;;3.27;2.20;;;;;;;19.44;31.90;95853.19;4996014;28;20226;-76
2023/10/09 10:53:15;;;;;;;4.83;2.10;;;;;;;19.60;30.90;95849.03;5020038;28;20302;-75
2023/10/09 10:58:53;;;;;;;3.50;2.00;;;;;;;19.69;30.84;95844.97;5034661;28;20821;-75
2023/10/09 11:01:24;;;;;;;3.30;1.90;;;;;;;19.66;30.30;95837.47;5017745;28;20932;-75
2023/10/09 11:03:56;;;;;;;3.47;2.17;;;;;;;19.86;30.64;95841.38;5003720;28;20222;-77
2023/10/09 11:06:35;;;;;;;7.70;2.00;;;;;;;19.92;30.82;95843.06;5000541;28;20295;-73
2023/10/09 11:09:08;;;;;;;4.43;2.43;;;;;;;19.97;30.78;95845.84;5019253;28;20291;-73
2023/10/09 11:11:41;;;;;;;4.03;1.90;;;;;;;20.16;30.79;95831.34;5018199;28;20263;-75
2023/10/09 11:14:14;;;;;;;3.80;2.20;;;;;;;20.07;30.08;95821.31;5007548;28;21070;-76
2023/10/09 11:16:43;;;;;;;4.43;2.70;;;;;;;20.36;30.58;95811.53;5028942;28;20245;-74
2023/10/09 11:21:59;;;;;;;6.13;3.03;;;;;;;20.51;30.94;95795.84;5036832;28;20678;-74
2023/10/09 11:24:27;;;;;;;8.40;4.10;;;;;;;20.55;30.69;95791.66;5021927;28;20311;-75
2023/10/09 11:26:56;;;;;;;12.67;6.07;;;;;;;20.67;30.29;95784.41;5024644;28;20255;-74
2023/10/09 11:29:52;;;;;;;10.73;5.30;;;;;;;20.72;30.54;95779.19;5028768;28;20340;-73
2023/10/09 11:32:18;;;;;;;10.43;5.10;;;;;;;20.74;29.86;95785.88;5024951;28;20236;-73
2023/10/09 11:34:53;;;;;;;6.63;4.23;;;;;;;20.73;29.90;95789.56;5021012;28;20229;-76
2023/10/09 11:39:55;;;;;;;4.90;2.40;;;;;;;20.39;29.82;95782.63;5030766;28;20245;-76
2023/10/09 11:45:28;;;;;;;4.83;2.30;;;;;;;20.36;29.22;95774.28;5020736;28;20237;-75
2023/10/09 11:48:00;;;;;;;6.07;2.20;;;;;;;20.61;30.19;95774.75;5014085;28;20316;-75
2023/10/09 11:55:54;;;;;;;4.20;2.10;;;;;;;20.65;29.28;95758.06;5016461;28;20234;-73
2023/10/09 11:58:22;;;;;;;3.93;2.03;;;;;;;20.64;29.56;95745.78;5013410;28;20256;-74
2023/10/09 12:00:56;;;;;;;4.17;2.00;;;;;;;20.60;29.46;95743.84;5005391;28;20234;-75
2023/10/09 12:03:28;;;;;;;4.10;2.83;;;;;;;20.56;29.52;95745.41;5021908;28;20226;-75
2023/10/09 12:05:56;;;;;;;6.60;3.50;;;;;;;20.54;30.18;95728.88;5007387;28;20221;-74
2023/10/09 12:08:26;;;;;;;9.57;3.67;;;;;;;20.60;30.33;95720.72;5005941;28;20222;-74
2023/10/09 12:10:54;;;;;;;5.37;2.60;;;;;;;20.75;30.08;95725.47;5029004;28;20230;-75
2023/10/09 12:13:23;;;;;;;5.13;2.80;;;;;;;20.76;29.62;95725.22;5020507;28;20221;-74
2023/10/09 12:15:54;;;;;;;6.13;2.50;;;;;;;20.52;29.29;95722.97;5005642;28;20238;-74
2023/10/09 12:18:21;;;;;;;5.87;2.60;;;;;;;20.57;29.85;95720.38;5020972;28;20233;-75
2023/10/09 12:21:02;;;;;;;7.17;2.33;;;;;;;20.59;29.74;95713.78;5016825;28;20238;-74
2023/10/09 12:23:27;;;;;;;3.47;2.20;;;;;;;20.76;29.72;95709.25;5035800;28;20240;-75
2023/10/09 12:25:56;;;;;;;3.40;1.87;;;;;;;20.86;30.08;95702.47;5016742;28;20242;-74
2023/10/09 12:28:22;;;;;;;4.33;2.10;;;;;;;20.80;29.07;95710.38;5020749;28;20226;-75
2023/10/09 12:30:51;;;;;;;3.63;2.00;;;;;;;20.79;29.27;95697.31;5009604;28;20244;-75
2023/10/09 12:33:18;;;;;;;3.23;1.80;;;;;;;20.71;29.06;95700.38;5012374;28;20763;-75
2023/10/09 12:35:47;;;;;;;6.83;2.10;;;;;;;20.74;29.10;95695.41;5008230;28;20320;-75
2023/10/09 12:38:18;;;;;;;3.00;2.00;;;;;;;20.72;29.45;95689.53;5018491;28;20237;-74
2023/10/09 12:40:50;;;;;;;3.50;1.83;;;;;;;20.76;29.47;95698.63;5020282;28;20238;-74
2023/10/09 12:43:19;;;;;;;6.80;2.10;;;;;;;20.80;28.21;95683.78;5036342;28;21207;-76
2023/10/09 12:45:46;;;;;;;2.33;1.70;;;;;;;20.75;28.81;95680.25;5003451;28;20245;-75
2023/10/09 12:48:14;;;;;;;2.77;1.70;;;;;;;20.85;28.47;95680.38;5019073;28;20226;-75
2023/10/09 12:50:44;;;;;;;5.03;1.70;;;;;;;20.85;29.14;95677.72;5021163;28;20241;-76
2023/10/09 12:53:10;;;;;;;2.53;1.60;;;;;;;20.80;27.91;95669.69;5006230;28;20233;-76
2023/10/09 12:55:41;;;;;;;3.30;1.70;;;;;;;20.77;28.90;95660.34;5006182;28;20294;-75
2023/10/09 12:58:08;;;;;;;4.03;1.70;;;;;;;20.75;28.29;95653.63;4992745;28;20219;-74
2023/10/09 13:00:39;;;;;;;4.23;1.70;;;;;;;20.82;28.58;95659.59;5003260;28;20241;-77
2023/10/09 13:03:17;;;;;;;2.83;1.63;;;;;;;20.80;28.77;95657.16;5004690;28;20221;-80
2023/10/09 13:05:56;;;;;;;1.90;1.60;;;;;;;20.91;28.32;95650.13;5007665;28;20233;-78
2023/10/09 13:08:23;;;;;;;4.20;1.73;;;;;;;20.99;28.17;95644.41;5038580;28;20221;-75
2023/10/09 13:11:36;;;;;;;4.50;1.70;;;;;;;21.01;28.33;95644.94;5038285;28;20226;-75
2023/10/09 13:13:46;;;;;;;4.03;1.70;;;;;;;21.10;28.14;95642.69;5036874;28;20230;-74
2023/10/09 13:16:24;;;;;;;2.17;1.70;;;;;;;21.16;28.10;95636.38;5020276;28;20304;-76
2023/10/09 13:18:53;;;;;;;3.23;1.77;;;;;;;21.07;28.37;95633.34;5035681;28;20294;-74
2023/10/09 13:21:20;;;;;;;6.73;2.10;;;;;;;21.09;28.69;95617.13;5023569;28;20238;-75
2023/10/09 13:23:46;;;;;;;3.20;1.70;;;;;;;21.13;27.63;95621.72;5035286;28;20304;-74
2023/10/09 13:26:21;;;;;;;3.87;1.90;;;;;;;21.14;27.44;95622.50;5021194;28;20635;-74
2023/10/09 13:28:54;;;;;;;3.57;1.80;;;;;;;21.16;27.03;95615.88;5038994;28;20290;-78
2023/10/09 13:31:20;;;;;;;2.73;1.80;;;;;;;21.19;26.78;95618.03;5005929;28;20225;-74
2023/10/09 13:33:46;;;;;;;2.20;1.57;;;;;;;21.20;26.13;95611.69;5017671;28;20241;-75
2023/10/09 13:36:31;;;;;;;3.33;2.00;;;;;;;21.13;26.13;95620.91;5039553;28;20229;-78
2023/10/09 13:39:25;;;;;;;2.97;1.90;;;;;;;21.09;26.44;95612.59;5001773;28;20221;-74
2023/10/09 13:41:58;;;;;;;4.27;1.73;;;;;;;21.19;26.01;95611.91;5040178;28;20240;-74
2023/10/09 13:44:31;;;;;;;5.53;2.10;;;;;;;21.15;26.60;95611.63;5043936;28;20226;-73
2023/10/09 13:47:01;;;;;;;3.30;1.90;;;;;;;21.16;26.38;95604.44;5036963;28;20257;-75
2023/10/09 13:49:32;;;;;;;5.07;2.30;;;;;;;21.19;26.01;95609.25;5023086;28;20238;-76
2023/10/09 13:51:59;;;;;;;10.93;2.20;;;;;;;21.14;25.23;95604.66;5039250;28;20245;-75
2023/10/09 13:54:39;;;;;;;4.20;2.03;;;;;;;21.18;26.23;95600.47;5031608;28;20245;-75
2023/10/09 13:57:05;;;;;;;5.77;2.20;;;;;;;21.28;25.33;95595.25;5031765;28;20275;-74
2023/10/09 13:59:31;;;;;;;4.90;2.20;;;;;;;21.23;25.71;95591.75;4998733;28;20280;-76
2023/10/09 14:01:56;;;;;;;5.50;1.90;;;;;;;21.23;26.05;95587.19;5024093;28;20241;-74
2023/10/09 14:04:23;;;;;;;5.93;2.60;;;;;;;21.24;26.62;95580.00;5023600;28;20222;-75
2023/10/09 14:06:56;;;;;;;3.03;2.10;;;;;;;21.24;26.81;95588.00;5012043;28;20222;-75
2023/10/09 14:09:37;;;;;;;4.20;2.00;;;;;;;21.12;26.71;95590.00;5016351;28;20225;-75
2023/10/09 14:12:08;;;;;;;3.27;2.10;;;;;;;21.13;26.88;95586.28;4999164;28;20308;-75
2023/10/09 14:14:56;;;;;;;6.10;2.10;;;;;;;21.09;27.39;95585.19;5017461;28;21043;-76
2023/10/09 14:17:27;;;;;;;4.43;2.40;;;;;;;21.15;27.25;95585.00;5029624;28;20465;-73
2023/10/09 14:20:25;;;;;;;4.50;2.27;;;;;;;21.10;27.49;95587.59;4998747;28;20241;-76
2023/10/09 14:22:42;;;;;;;7.90;2.33;;;;;;;21.03;27.75;95583.47;5014189;28;20237;-76